Terminal Aerodrome Forecast
Issued by NWS Bismarck, ND

Home | Current Version | Previous Version | Text Only | Print | Product List | Glossary On
Versions: 1 2 3 4 5 6 7 8 9 10 11 12 13 14 15 16 17 18 19 20 21 22 23
000
FTUS43 KBIS 231731
TAFBIS
TAF
KBIS 231731Z 2318/2418 30009KT P6SM SCT120
     FM240100 30005KT P6SM BKN200
     FM240300 29005KT 3SM BR SCT040
     FM240600 27004KT 1SM BR OVC020
     FM240800 VRB03KT 1/2SM FG OVC008
     FM241200 VRB03KT 2SM BR SCT015 BKN050
     FM241400 19005KT P6SM BKN070=

USA.gov is the U.S. government's official web portal to all federal, state and local government web resources and services.